sensor_id;sensor_type;location;lat;lon;timestamp;P1;durP1;ratioP1;P2;durP2;ratioP2
40981;SDS011;26708;50.304;19.028;2022-08-21T00:00:17;14.82;;;8.35;;
40981;SDS011;26708;50.304;19.028;2022-08-21T00:03:20;13.98;;;7.45;;
40981;SDS011;26708;50.304;19.028;2022-08-21T00:06:22;14.30;;;7.97;;
40981;SDS011;26708;50.304;19.028;2022-08-21T00:09:25;14.40;;;8.17;;
40981;SDS011;26708;50.304;19.028;2022-08-21T00:12:27;21.98;;;9.82;;
40981;SDS011;26708;50.304;19.028;2022-08-21T00:15:28;16.23;;;9.20;;
40981;SDS011;26708;50.304;19.028;2022-08-21T00:18:31;17.17;;;10.13;;
40981;SDS011;26708;50.304;19.028;2022-08-21T00:21:33;21.33;;;11.27;;
40981;SDS011;26708;50.304;19.028;2022-08-21T00:24:35;20.42;;;11.13;;
40981;SDS011;26708;50.304;19.028;2022-08-21T00:27:36;19.52;;;11.57;;
40981;SDS011;26708;50.304;19.028;2022-08-21T00:30:37;18.50;;;12.20;;
40981;SDS011;26708;50.304;19.028;2022-08-21T00:33:39;20.05;;;11.60;;
40981;SDS011;26708;50.304;19.028;2022-08-21T00:36:41;19.67;;;11.80;;
40981;SDS011;26708;50.304;19.028;2022-08-21T00:39:43;23.80;;;11.20;;
40981;SDS011;26708;50.304;19.028;2022-08-21T00:42:43;20.67;;;11.43;;
40981;SDS011;26708;50.304;19.028;2022-08-21T00:45:44;19.52;;;11.27;;
40981;SDS011;26708;50.304;19.028;2022-08-21T00:48:46;20.85;;;10.30;;
40981;SDS011;26708;50.304;19.028;2022-08-21T00:51:57;18.02;;;10.75;;
40981;SDS011;26708;50.304;19.028;2022-08-21T00:55:00;21.55;;;10.80;;
40981;SDS011;26708;50.304;19.028;2022-08-21T00:58:02;20.63;;;10.88;;
40981;SDS011;26708;50.304;19.028;2022-08-21T01:01:06;18.13;;;11.05;;
40981;SDS011;26708;50.304;19.028;2022-08-21T01:04:08;18.48;;;11.32;;
40981;SDS011;26708;50.304;19.028;2022-08-21T01:07:09;19.30;;;11.23;;
40981;SDS011;26708;50.304;19.028;2022-08-21T01:10:10;24.58;;;12.75;;
40981;SDS011;26708;50.304;19.028;2022-08-21T01:13:13;18.48;;;11.63;;
40981;SDS011;26708;50.304;19.028;2022-08-21T01:16:19;22.00;;;12.25;;
40981;SDS011;26708;50.304;19.028;2022-08-21T01:19:22;22.65;;;11.70;;
40981;SDS011;26708;50.304;19.028;2022-08-21T01:22:23;17.52;;;11.23;;
40981;SDS011;26708;50.304;19.028;2022-08-21T01:25:24;17.52;;;11.13;;
40981;SDS011;26708;50.304;19.028;2022-08-21T01:28:25;23.52;;;10.80;;
40981;SDS011;26708;50.304;19.028;2022-08-21T01:31:30;20.42;;;11.02;;
40981;SDS011;26708;50.304;19.028;2022-08-21T01:34:34;18.30;;;10.82;;
40981;SDS011;26708;50.304;19.028;2022-08-21T01:37:39;17.15;;;10.30;;
40981;SDS011;26708;50.304;19.028;2022-08-21T01:40:40;18.63;;;10.32;;
40981;SDS011;26708;50.304;19.028;2022-08-21T01:43:42;18.83;;;10.30;;
40981;SDS011;26708;50.304;19.028;2022-08-21T01:46:44;19.42;;;10.20;;
40981;SDS011;26708;50.304;19.028;2022-08-21T01:49:45;15.88;;;9.55;;
40981;SDS011;26708;50.304;19.028;2022-08-21T01:52:46;14.80;;;8.68;;
40981;SDS011;26708;50.304;19.028;2022-08-21T01:55:48;13.30;;;8.82;;
40981;SDS011;26708;50.304;19.028;2022-08-21T01:58:49;14.48;;;8.88;;
40981;SDS011;26708;50.304;19.028;2022-08-21T02:01:50;14.98;;;8.80;;
40981;SDS011;26708;50.304;19.028;2022-08-21T02:04:52;14.75;;;8.40;;
40981;SDS011;26708;50.304;19.028;2022-08-21T02:07:55;12.82;;;8.95;;
40981;SDS011;26708;50.304;19.028;2022-08-21T02:10:56;16.38;;;9.05;;
40981;SDS011;26708;50.304;19.028;2022-08-21T02:13:57;13.68;;;8.75;;
40981;SDS011;26708;50.304;19.028;2022-08-21T02:16:58;15.00;;;7.82;;
40981;SDS011;26708;50.304;19.028;2022-08-21T02:20:00;14.85;;;9.02;;
40981;SDS011;26708;50.304;19.028;2022-08-21T02:23:00;17.08;;;8.45;;
40981;SDS011;26708;50.304;19.028;2022-08-21T02:26:04;14.25;;;8.30;;
40981;SDS011;26708;50.304;19.028;2022-08-21T02:29:07;13.82;;;8.45;;
40981;SDS011;26708;50.304;19.028;2022-08-21T02:32:08;13.98;;;7.70;;
40981;SDS011;26708;50.304;19.028;2022-08-21T02:35:09;16.83;;;8.05;;
40981;SDS011;26708;50.304;19.028;2022-08-21T02:38:16;15.93;;;7.82;;
40981;SDS011;26708;50.304;19.028;2022-08-21T02:41:23;11.98;;;8.30;;
40981;SDS011;26708;50.304;19.028;2022-08-21T02:44:24;14.52;;;8.80;;
40981;SDS011;26708;50.304;19.028;2022-08-21T02:47:31;16.45;;;8.45;;
40981;SDS011;26708;50.304;19.028;2022-08-21T02:50:33;17.35;;;8.85;;
40981;SDS011;26708;50.304;19.028;2022-08-21T02:53:40;16.88;;;8.50;;
40981;SDS011;26708;50.304;19.028;2022-08-21T02:56:41;20.20;;;8.05;;
40981;SDS011;26708;50.304;19.028;2022-08-21T02:59:42;13.95;;;8.57;;
40981;SDS011;26708;50.304;19.028;2022-08-21T03:02:43;18.27;;;9.07;;
40981;SDS011;26708;50.304;19.028;2022-08-21T03:05:49;12.98;;;8.38;;
40981;SDS011;26708;50.304;19.028;2022-08-21T03:11:55;14.95;;;8.25;;
40981;SDS011;26708;50.304;19.028;2022-08-21T03:14:59;13.98;;;8.52;;
40981;SDS011;26708;50.304;19.028;2022-08-21T03:18:00;14.13;;;9.10;;
40981;SDS011;26708;50.304;19.028;2022-08-21T03:21:01;16.63;;;9.20;;
40981;SDS011;26708;50.304;19.028;2022-08-21T03:24:03;13.43;;;8.73;;
40981;SDS011;26708;50.304;19.028;2022-08-21T03:27:06;17.58;;;9.43;;
40981;SDS011;26708;50.304;19.028;2022-08-21T03:30:07;16.45;;;8.93;;
40981;SDS011;26708;50.304;19.028;2022-08-21T03:33:10;16.02;;;9.60;;
40981;SDS011;26708;50.304;19.028;2022-08-21T03:36:11;15.70;;;9.35;;
40981;SDS011;26708;50.304;19.028;2022-08-21T03:39:12;16.70;;;9.57;;
40981;SDS011;26708;50.304;19.028;2022-08-21T03:42:14;18.10;;;9.57;;
40981;SDS011;26708;50.304;19.028;2022-08-21T03:45:15;15.23;;;8.88;;
40981;SDS011;26708;50.304;19.028;2022-08-21T03:48:19;17.87;;;9.57;;
40981;SDS011;26708;50.304;19.028;2022-08-21T03:51:20;17.02;;;9.73;;
40981;SDS011;26708;50.304;19.028;2022-08-21T03:54:21;15.27;;;8.75;;
40981;SDS011;26708;50.304;19.028;2022-08-21T03:57:21;17.00;;;9.50;;
40981;SDS011;26708;50.304;19.028;2022-08-21T04:00:23;22.85;;;9.60;;
40981;SDS011;26708;50.304;19.028;2022-08-21T04:03:25;17.98;;;9.50;;
40981;SDS011;26708;50.304;19.028;2022-08-21T04:06:27;18.55;;;9.68;;
40981;SDS011;26708;50.304;19.028;2022-08-21T04:09:28;22.40;;;10.40;;
40981;SDS011;26708;50.304;19.028;2022-08-21T04:12:30;19.70;;;9.85;;
40981;SDS011;26708;50.304;19.028;2022-08-21T04:15:31;18.80;;;9.65;;
40981;SDS011;26708;50.304;19.028;2022-08-21T04:18:32;17.08;;;9.35;;
40981;SDS011;26708;50.304;19.028;2022-08-21T04:21:33;23.15;;;9.82;;
40981;SDS011;26708;50.304;19.028;2022-08-21T04:24:38;16.58;;;10.32;;
40981;SDS011;26708;50.304;19.028;2022-08-21T04:27:39;16.13;;;10.00;;
40981;SDS011;26708;50.304;19.028;2022-08-21T04:30:40;16.48;;;9.95;;
40981;SDS011;26708;50.304;19.028;2022-08-21T04:33:41;18.63;;;10.57;;
40981;SDS011;26708;50.304;19.028;2022-08-21T04:36:42;19.15;;;9.75;;
40981;SDS011;26708;50.304;19.028;2022-08-21T04:39:43;17.95;;;10.73;;
40981;SDS011;26708;50.304;19.028;2022-08-21T04:42:45;20.10;;;10.52;;
40981;SDS011;26708;50.304;19.028;2022-08-21T04:45:50;18.05;;;10.90;;
40981;SDS011;26708;50.304;19.028;2022-08-21T04:48:51;20.25;;;10.93;;
40981;SDS011;26708;50.304;19.028;2022-08-21T04:51:52;18.50;;;11.32;;
40981;SDS011;26708;50.304;19.028;2022-08-21T04:54:52;20.52;;;11.15;;
40981;SDS011;26708;50.304;19.028;2022-08-21T04:57:54;21.77;;;11.57;;
40981;SDS011;26708;50.304;19.028;2022-08-21T05:00:56;21.20;;;11.60;;
40981;SDS011;26708;50.304;19.028;2022-08-21T05:03:59;22.70;;;12.00;;
40981;SDS011;26708;50.304;19.028;2022-08-21T05:07:02;25.52;;;12.30;;
40981;SDS011;26708;50.304;19.028;2022-08-21T05:10:06;21.33;;;11.95;;
40981;SDS011;26708;50.304;19.028;2022-08-21T05:13:08;22.58;;;11.60;;
40981;SDS011;26708;50.304;19.028;2022-08-21T05:16:10;21.88;;;11.95;;
40981;SDS011;26708;50.304;19.028;2022-08-21T05:19:11;21.02;;;11.93;;
40981;SDS011;26708;50.304;19.028;2022-08-21T05:22:18;28.85;;;12.07;;
40981;SDS011;26708;50.304;19.028;2022-08-21T05:25:19;24.25;;;12.32;;
40981;SDS011;26708;50.304;19.028;2022-08-21T05:28:20;22.73;;;13.25;;
40981;SDS011;26708;50.304;19.028;2022-08-21T05:31:21;28.38;;;13.60;;
40981;SDS011;26708;50.304;19.028;2022-08-21T05:34:23;21.27;;;12.88;;
40981;SDS011;26708;50.304;19.028;2022-08-21T05:37:24;28.00;;;13.35;;
40981;SDS011;26708;50.304;19.028;2022-08-21T05:40:25;24.48;;;12.98;;
40981;SDS011;26708;50.304;19.028;2022-08-21T05:43:26;19.33;;;11.85;;
40981;SDS011;26708;50.304;19.028;2022-08-21T05:46:27;28.58;;;13.13;;
40981;SDS011;26708;50.304;19.028;2022-08-21T05:49:27;21.70;;;12.68;;
40981;SDS011;26708;50.304;19.028;2022-08-21T05:52:28;24.10;;;12.52;;
40981;SDS011;26708;50.304;19.028;2022-08-21T05:55:29;20.90;;;12.68;;
40981;SDS011;26708;50.304;19.028;2022-08-21T05:58:30;25.38;;;13.82;;
40981;SDS011;26708;50.304;19.028;2022-08-21T06:01:33;25.80;;;13.85;;
40981;SDS011;26708;50.304;19.028;2022-08-21T06:04:37;26.83;;;13.68;;
40981;SDS011;26708;50.304;19.028;2022-08-21T06:07:38;23.17;;;14.20;;
40981;SDS011;26708;50.304;19.028;2022-08-21T06:10:39;31.70;;;14.35;;
40981;SDS011;26708;50.304;19.028;2022-08-21T06:13:40;27.58;;;14.65;;
40981;SDS011;26708;50.304;19.028;2022-08-21T06:16:41;28.10;;;15.10;;
40981;SDS011;26708;50.304;19.028;2022-08-21T06:19:42;30.92;;;15.73;;
40981;SDS011;26708;50.304;19.028;2022-08-21T06:22:43;27.52;;;16.15;;
40981;SDS011;26708;50.304;19.028;2022-08-21T06:25:44;28.25;;;16.30;;
40981;SDS011;26708;50.304;19.028;2022-08-21T06:28:45;29.40;;;16.88;;
40981;SDS011;26708;50.304;19.028;2022-08-21T06:31:49;27.60;;;16.17;;
40981;SDS011;26708;50.304;19.028;2022-08-21T06:34:50;27.13;;;14.07;;
40981;SDS011;26708;50.304;19.028;2022-08-21T06:37:51;28.83;;;16.60;;
40981;SDS011;26708;50.304;19.028;2022-08-21T06:40:52;34.28;;;16.98;;
40981;SDS011;26708;50.304;19.028;2022-08-21T06:43:53;29.40;;;15.07;;
40981;SDS011;26708;50.304;19.028;2022-08-21T06:46:55;18.15;;;9.85;;
40981;SDS011;26708;50.304;19.028;2022-08-21T06:49:57;9.95;;;6.20;;
40981;SDS011;26708;50.304;19.028;2022-08-21T06:53:01;15.02;;;7.50;;
40981;SDS011;26708;50.304;19.028;2022-08-21T06:56:06;3.55;;;2.63;;
40981;SDS011;26708;50.304;19.028;2022-08-21T06:59:07;3.88;;;2.20;;
40981;SDS011;26708;50.304;19.028;2022-08-21T07:02:10;2.63;;;1.50;;
40981;SDS011;26708;50.304;19.028;2022-08-21T07:05:11;4.50;;;1.17;;
40981;SDS011;26708;50.304;19.028;2022-08-21T07:08:14;2.60;;;1.13;;
40981;SDS011;26708;50.304;19.028;2022-08-21T07:11:17;2.08;;;0.80;;
40981;SDS011;26708;50.304;19.028;2022-08-21T07:14:20;0.77;;;0.57;;
40981;SDS011;26708;50.304;19.028;2022-08-21T07:17:21;0.52;;;0.43;;
40981;SDS011;26708;50.304;19.028;2022-08-21T07:20:22;2.65;;;0.70;;
40981;SDS011;26708;50.304;19.028;2022-08-21T07:23:24;3.88;;;1.58;;
40981;SDS011;26708;50.304;19.028;2022-08-21T07:26:28;2.38;;;1.83;;
40981;SDS011;26708;50.304;19.028;2022-08-21T07:29:29;2.65;;;1.35;;
40981;SDS011;26708;50.304;19.028;2022-08-21T07:32:29;3.20;;;1.50;;
40981;SDS011;26708;50.304;19.028;2022-08-21T07:35:30;3.17;;;1.20;;
40981;SDS011;26708;50.304;19.028;2022-08-21T07:38:33;3.38;;;0.82;;
40981;SDS011;26708;50.304;19.028;2022-08-21T07:41:34;4.32;;;0.90;;
40981;SDS011;26708;50.304;19.028;2022-08-21T07:44:35;2.33;;;0.90;;
40981;SDS011;26708;50.304;19.028;2022-08-21T07:47:36;3.20;;;0.70;;
40981;SDS011;26708;50.304;19.028;2022-08-21T07:50:39;2.45;;;0.57;;
40981;SDS011;26708;50.304;19.028;2022-08-21T07:53:41;1.08;;;0.30;;
40981;SDS011;26708;50.304;19.028;2022-08-21T07:56:47;5.00;;;0.70;;
40981;SDS011;26708;50.304;19.028;2022-08-21T07:59:48;1.13;;;0.40;;
40981;SDS011;26708;50.304;19.028;2022-08-21T08:02:51;0.98;;;0.40;;
40981;SDS011;26708;50.304;19.028;2022-08-21T08:05:54;1.02;;;0.40;;
40981;SDS011;26708;50.304;19.028;2022-08-21T08:08:55;1.67;;;0.30;;
40981;SDS011;26708;50.304;19.028;2022-08-21T08:11:56;0.63;;;0.30;;
40981;SDS011;26708;50.304;19.028;2022-08-21T08:15:00;1.38;;;0.35;;
40981;SDS011;26708;50.304;19.028;2022-08-21T08:18:02;0.50;;;0.43;;
40981;SDS011;26708;50.304;19.028;2022-08-21T08:21:03;1.08;;;0.40;;
40981;SDS011;26708;50.304;19.028;2022-08-21T08:24:06;1.17;;;0.20;;
40981;SDS011;26708;50.304;19.028;2022-08-21T08:27:07;3.25;;;0.45;;
40981;SDS011;26708;50.304;19.028;2022-08-21T08:30:09;0.70;;;0.30;;
40981;SDS011;26708;50.304;19.028;2022-08-21T08:33:13;1.75;;;0.63;;
40981;SDS011;26708;50.304;19.028;2022-08-21T08:36:15;1.55;;;0.50;;
40981;SDS011;26708;50.304;19.028;2022-08-21T08:39:18;2.38;;;0.47;;
40981;SDS011;26708;50.304;19.028;2022-08-21T08:42:26;0.90;;;0.40;;
40981;SDS011;26708;50.304;19.028;2022-08-21T08:45:29;2.05;;;0.50;;
40981;SDS011;26708;50.304;19.028;2022-08-21T08:51:55;2.08;;;0.55;;
40981;SDS011;26708;50.304;19.028;2022-08-21T08:55:08;0.73;;;0.32;;
40981;SDS011;26708;50.304;19.028;2022-08-21T08:58:25;0.52;;;0.40;;
40981;SDS011;26708;50.304;19.028;2022-08-21T09:01:30;1.98;;;0.80;;
40981;SDS011;26708;50.304;19.028;2022-08-21T09:04:31;3.63;;;0.60;;
40981;SDS011;26708;50.304;19.028;2022-08-21T09:07:38;2.25;;;0.52;;
40981;SDS011;26708;50.304;19.028;2022-08-21T09:27:41;1.80;;;0.60;;
40981;SDS011;26708;50.304;19.028;2022-08-21T09:30:42;1.13;;;0.40;;
40981;SDS011;26708;50.304;19.028;2022-08-21T09:33:43;0.50;;;0.40;;
40981;SDS011;26708;50.304;19.028;2022-08-21T09:36:44;3.72;;;0.60;;
40981;SDS011;26708;50.304;19.028;2022-08-21T09:39:49;1.90;;;0.63;;
40981;SDS011;26708;50.304;19.028;2022-08-21T09:43:02;1.13;;;0.38;;
40981;SDS011;26708;50.304;19.028;2022-08-21T09:46:21;1.17;;;0.38;;
40981;SDS011;26708;50.304;19.028;2022-08-21T09:49:42;0.75;;;0.30;;
40981;SDS011;26708;50.304;19.028;2022-08-21T09:52:45;1.80;;;0.52;;
40981;SDS011;26708;50.304;19.028;2022-08-21T09:55:51;3.60;;;0.73;;
40981;SDS011;26708;50.304;19.028;2022-08-21T09:59:24;1.08;;;0.55;;
40981;SDS011;26708;50.304;19.028;2022-08-21T10:02:33;1.15;;;0.40;;
40981;SDS011;26708;50.304;19.028;2022-08-21T10:05:35;1.38;;;0.57;;
40981;SDS011;26708;50.304;19.028;2022-08-21T10:08:38;0.38;;;0.38;;
40981;SDS011;26708;50.304;19.028;2022-08-21T10:11:40;2.40;;;0.57;;
40981;SDS011;26708;50.304;19.028;2022-08-21T10:15:11;0.63;;;0.40;;
40981;SDS011;26708;50.304;19.028;2022-08-21T10:18:38;1.30;;;0.70;;
40981;SDS011;26708;50.304;19.028;2022-08-21T10:21:48;1.10;;;0.30;;
40981;SDS011;26708;50.304;19.028;2022-08-21T10:28:26;2.85;;;0.35;;
40981;SDS011;26708;50.304;19.028;2022-08-21T10:35:13;0.55;;;0.40;;
40981;SDS011;26708;50.304;19.028;2022-08-21T10:45:39;2.33;;;0.52;;
40981;SDS011;26708;50.304;19.028;2022-08-21T10:52:05;0.50;;;0.50;;
40981;SDS011;26708;50.304;19.028;2022-08-21T10:55:22;0.80;;;0.60;;
40981;SDS011;26708;50.304;19.028;2022-08-21T10:58:37;0.50;;;0.50;;
40981;SDS011;26708;50.304;19.028;2022-08-21T11:02:03;1.50;;;0.32;;
40981;SDS011;26708;50.304;19.028;2022-08-21T11:05:28;1.08;;;0.40;;
40981;SDS011;26708;50.304;19.028;2022-08-21T11:08:35;0.90;;;0.50;;
40981;SDS011;26708;50.304;19.028;2022-08-21T11:11:50;1.00;;;0.52;;
40981;SDS011;26708;50.304;19.028;2022-08-21T11:21:43;2.47;;;0.98;;
40981;SDS011;26708;50.304;19.028;2022-08-21T11:24:51;0.90;;;0.43;;
40981;SDS011;26708;50.304;19.028;2022-08-21T11:28:02;4.88;;;0.50;;
40981;SDS011;26708;50.304;19.028;2022-08-21T11:31:31;1.73;;;0.85;;
40981;SDS011;26708;50.304;19.028;2022-08-21T11:41:43;1.13;;;0.60;;
40981;SDS011;26708;50.304;19.028;2022-08-21T11:52:11;0.93;;;0.55;;
40981;SDS011;26708;50.304;19.028;2022-08-21T11:55:42;1.33;;;0.60;;
40981;SDS011;26708;50.304;19.028;2022-08-21T11:58:56;1.35;;;0.68;;
40981;SDS011;26708;50.304;19.028;2022-08-21T12:02:02;1.70;;;0.80;;
40981;SDS011;26708;50.304;19.028;2022-08-21T12:05:22;0.80;;;0.70;;
40981;SDS011;26708;50.304;19.028;2022-08-21T12:08:39;1.38;;;0.77;;
40981;SDS011;26708;50.304;19.028;2022-08-21T12:11:47;0.77;;;0.70;;
40981;SDS011;26708;50.304;19.028;2022-08-21T12:21:54;0.32;;;0.32;;
40981;SDS011;26708;50.304;19.028;2022-08-21T12:25:13;0.65;;;0.45;;
40981;SDS011;26708;50.304;19.028;2022-08-21T12:28:21;1.52;;;0.50;;
40981;SDS011;26708;50.304;19.028;2022-08-21T12:31:25;0.50;;;0.38;;
40981;SDS011;26708;50.304;19.028;2022-08-21T12:37:46;1.67;;;0.50;;
40981;SDS011;26708;50.304;19.028;2022-08-21T12:44:05;0.45;;;0.43;;
40981;SDS011;26708;50.304;19.028;2022-08-21T12:47:27;0.82;;;0.70;;
40981;SDS011;26708;50.304;19.028;2022-08-21T12:50:55;0.68;;;0.60;;
40981;SDS011;26708;50.304;19.028;2022-08-21T12:53:58;1.52;;;0.90;;
40981;SDS011;26708;50.304;19.028;2022-08-21T12:57:01;1.00;;;0.88;;
40981;SDS011;26708;50.304;19.028;2022-08-21T13:00:07;1.20;;;0.82;;
40981;SDS011;26708;50.304;19.028;2022-08-21T13:03:13;3.03;;;1.08;;
40981;SDS011;26708;50.304;19.028;2022-08-21T13:06:17;3.22;;;0.95;;
40981;SDS011;26708;50.304;19.028;2022-08-21T13:09:24;1.00;;;0.90;;
40981;SDS011;26708;50.304;19.028;2022-08-21T13:12:27;1.15;;;0.80;;
40981;SDS011;26708;50.304;19.028;2022-08-21T13:15:31;1.00;;;0.80;;
40981;SDS011;26708;50.304;19.028;2022-08-21T13:18:35;2.67;;;1.02;;
40981;SDS011;26708;50.304;19.028;2022-08-21T13:21:51;1.95;;;0.90;;
40981;SDS011;26708;50.304;19.028;2022-08-21T13:24:52;8.30;;;5.43;;
40981;SDS011;26708;50.304;19.028;2022-08-21T13:27:58;8.18;;;5.82;;
40981;SDS011;26708;50.304;19.028;2022-08-21T13:31:06;9.13;;;5.97;;
40981;SDS011;26708;50.304;19.028;2022-08-21T13:34:10;7.85;;;5.53;;
40981;SDS011;26708;50.304;19.028;2022-08-21T13:37:11;11.18;;;6.57;;
40981;SDS011;26708;50.304;19.028;2022-08-21T13:40:14;11.65;;;6.22;;
40981;SDS011;26708;50.304;19.028;2022-08-21T13:43:18;10.05;;;6.25;;
40981;SDS011;26708;50.304;19.028;2022-08-21T13:46:22;8.93;;;5.72;;
40981;SDS011;26708;50.304;19.028;2022-08-21T13:49:31;9.05;;;6.55;;
40981;SDS011;26708;50.304;19.028;2022-08-21T13:52:44;7.28;;;5.05;;
40981;SDS011;26708;50.304;19.028;2022-08-21T13:55:48;4.10;;;3.25;;
40981;SDS011;26708;50.304;19.028;2022-08-21T13:58:48;3.80;;;2.55;;
40981;SDS011;26708;50.304;19.028;2022-08-21T14:01:51;5.57;;;2.58;;
40981;SDS011;26708;50.304;19.028;2022-08-21T14:04:58;4.57;;;2.83;;
40981;SDS011;26708;50.304;19.028;2022-08-21T14:08:11;4.20;;;2.88;;
40981;SDS011;26708;50.304;19.028;2022-08-21T14:11:15;4.60;;;2.90;;
40981;SDS011;26708;50.304;19.028;2022-08-21T14:14:19;4.00;;;2.60;;
40981;SDS011;26708;50.304;19.028;2022-08-21T14:17:37;4.43;;;2.50;;
40981;SDS011;26708;50.304;19.028;2022-08-21T14:20:42;3.28;;;2.20;;
40981;SDS011;26708;50.304;19.028;2022-08-21T14:23:43;7.38;;;2.30;;
40981;SDS011;26708;50.304;19.028;2022-08-21T14:26:45;3.38;;;2.33;;
40981;SDS011;26708;50.304;19.028;2022-08-21T14:30:21;6.55;;;4.07;;
40981;SDS011;26708;50.304;19.028;2022-08-21T14:33:29;8.43;;;3.50;;
40981;SDS011;26708;50.304;19.028;2022-08-21T14:36:32;6.22;;;3.45;;
40981;SDS011;26708;50.304;19.028;2022-08-21T14:39:33;7.07;;;3.05;;
40981;SDS011;26708;50.304;19.028;2022-08-21T14:42:33;5.53;;;2.95;;
40981;SDS011;26708;50.304;19.028;2022-08-21T14:45:34;5.88;;;2.65;;
40981;SDS011;26708;50.304;19.028;2022-08-21T14:48:37;3.38;;;2.40;;
40981;SDS011;26708;50.304;19.028;2022-08-21T14:51:38;4.53;;;2.38;;
40981;SDS011;26708;50.304;19.028;2022-08-21T14:54:41;5.28;;;3.20;;
40981;SDS011;26708;50.304;19.028;2022-08-21T14:57:47;3.00;;;2.08;;
40981;SDS011;26708;50.304;19.028;2022-08-21T15:00:51;3.63;;;1.95;;
40981;SDS011;26708;50.304;19.028;2022-08-21T15:03:54;4.97;;;2.50;;
40981;SDS011;26708;50.304;19.028;2022-08-21T15:06:54;7.13;;;2.40;;
40981;SDS011;26708;50.304;19.028;2022-08-21T15:09:56;5.07;;;2.50;;
40981;SDS011;26708;50.304;19.028;2022-08-21T15:13:05;4.63;;;2.30;;
40981;SDS011;26708;50.304;19.028;2022-08-21T15:16:08;5.88;;;2.45;;
40981;SDS011;26708;50.304;19.028;2022-08-21T15:19:11;3.75;;;1.85;;
40981;SDS011;26708;50.304;19.028;2022-08-21T15:22:12;4.25;;;2.13;;
40981;SDS011;26708;50.304;19.028;2022-08-21T15:25:13;3.92;;;2.05;;
40981;SDS011;26708;50.304;19.028;2022-08-21T15:28:15;6.07;;;2.58;;
40981;SDS011;26708;50.304;19.028;2022-08-21T15:31:17;3.95;;;1.95;;
40981;SDS011;26708;50.304;19.028;2022-08-21T15:34:18;4.05;;;2.30;;
40981;SDS011;26708;50.304;19.028;2022-08-21T15:37:21;6.13;;;2.42;;
40981;SDS011;26708;50.304;19.028;2022-08-21T15:40:22;5.60;;;2.72;;
40981;SDS011;26708;50.304;19.028;2022-08-21T15:43:25;2.92;;;1.95;;
40981;SDS011;26708;50.304;19.028;2022-08-21T15:46:31;2.95;;;2.00;;
40981;SDS011;26708;50.304;19.028;2022-08-21T15:49:32;4.13;;;2.15;;
40981;SDS011;26708;50.304;19.028;2022-08-21T15:52:33;4.03;;;2.17;;
40981;SDS011;26708;50.304;19.028;2022-08-21T15:55:34;5.70;;;2.85;;
40981;SDS011;26708;50.304;19.028;2022-08-21T15:58:35;4.68;;;2.45;;
40981;SDS011;26708;50.304;19.028;2022-08-21T16:01:36;3.58;;;2.05;;
40981;SDS011;26708;50.304;19.028;2022-08-21T16:04:37;4.07;;;2.20;;
40981;SDS011;26708;50.304;19.028;2022-08-21T16:07:38;3.85;;;2.20;;
40981;SDS011;26708;50.304;19.028;2022-08-21T16:10:39;3.38;;;1.85;;
40981;SDS011;26708;50.304;19.028;2022-08-21T16:13:41;2.90;;;1.80;;
40981;SDS011;26708;50.304;19.028;2022-08-21T16:16:44;2.95;;;1.38;;
40981;SDS011;26708;50.304;19.028;2022-08-21T16:19:45;2.83;;;1.85;;
40981;SDS011;26708;50.304;19.028;2022-08-21T16:22:49;2.35;;;1.65;;
40981;SDS011;26708;50.304;19.028;2022-08-21T16:25:50;2.15;;;1.60;;
40981;SDS011;26708;50.304;19.028;2022-08-21T16:28:52;2.75;;;1.50;;
40981;SDS011;26708;50.304;19.028;2022-08-21T16:31:57;2.70;;;1.70;;
40981;SDS011;26708;50.304;19.028;2022-08-21T16:34:58;2.00;;;1.40;;
40981;SDS011;26708;50.304;19.028;2022-08-21T16:37:59;3.92;;;1.50;;
40981;SDS011;26708;50.304;19.028;2022-08-21T16:41:00;3.35;;;1.58;;
40981;SDS011;26708;50.304;19.028;2022-08-21T16:44:02;2.65;;;1.88;;
40981;SDS011;26708;50.304;19.028;2022-08-21T16:47:05;5.30;;;1.95;;
40981;SDS011;26708;50.304;19.028;2022-08-21T16:50:07;2.30;;;1.70;;
40981;SDS011;26708;50.304;19.028;2022-08-21T16:53:08;4.00;;;1.42;;
40981;SDS011;26708;50.304;19.028;2022-08-21T16:56:10;4.65;;;2.40;;
40981;SDS011;26708;50.304;19.028;2022-08-21T16:59:12;3.72;;;1.92;;
40981;SDS011;26708;50.304;19.028;2022-08-21T17:02:19;3.25;;;1.83;;
40981;SDS011;26708;50.304;19.028;2022-08-21T17:05:27;3.90;;;2.03;;
40981;SDS011;26708;50.304;19.028;2022-08-21T17:08:30;2.28;;;1.80;;
40981;SDS011;26708;50.304;19.028;2022-08-21T17:11:32;2.95;;;2.08;;
40981;SDS011;26708;50.304;19.028;2022-08-21T17:14:36;4.25;;;1.88;;
40981;SDS011;26708;50.304;19.028;2022-08-21T17:17:37;2.75;;;1.95;;
40981;SDS011;26708;50.304;19.028;2022-08-21T17:20:38;6.35;;;2.40;;
40981;SDS011;26708;50.304;19.028;2022-08-21T17:23:39;4.40;;;2.60;;
40981;SDS011;26708;50.304;19.028;2022-08-21T17:26:41;3.75;;;2.08;;
40981;SDS011;26708;50.304;19.028;2022-08-21T17:29:43;3.17;;;1.77;;
40981;SDS011;26708;50.304;19.028;2022-08-21T17:32:47;3.03;;;1.90;;
40981;SDS011;26708;50.304;19.028;2022-08-21T17:35:52;3.38;;;1.70;;
40981;SDS011;26708;50.304;19.028;2022-08-21T17:38:53;2.65;;;2.05;;
40981;SDS011;26708;50.304;19.028;2022-08-21T17:42:00;4.85;;;2.00;;
40981;SDS011;26708;50.304;19.028;2022-08-21T17:45:22;3.95;;;2.17;;
40981;SDS011;26708;50.304;19.028;2022-08-21T17:48:26;2.50;;;1.80;;
40981;SDS011;26708;50.304;19.028;2022-08-21T17:51:28;2.22;;;1.58;;
40981;SDS011;26708;50.304;19.028;2022-08-21T17:54:29;3.97;;;1.80;;
40981;SDS011;26708;50.304;19.028;2022-08-21T17:57:31;1.95;;;1.15;;
40981;SDS011;26708;50.304;19.028;2022-08-21T18:00:34;1.83;;;1.00;;
40981;SDS011;26708;50.304;19.028;2022-08-21T18:03:35;1.88;;;1.42;;
40981;SDS011;26708;50.304;19.028;2022-08-21T18:06:36;3.03;;;1.30;;
40981;SDS011;26708;50.304;19.028;2022-08-21T18:09:37;2.92;;;1.10;;
40981;SDS011;26708;50.304;19.028;2022-08-21T18:12:39;2.53;;;0.75;;
40981;SDS011;26708;50.304;19.028;2022-08-21T18:15:42;1.15;;;0.73;;
40981;SDS011;26708;50.304;19.028;2022-08-21T18:18:45;2.97;;;0.60;;
40981;SDS011;26708;50.304;19.028;2022-08-21T18:21:48;1.38;;;0.70;;
40981;SDS011;26708;50.304;19.028;2022-08-21T18:24:48;0.82;;;0.63;;
40981;SDS011;26708;50.304;19.028;2022-08-21T18:27:49;1.85;;;0.50;;
40981;SDS011;26708;50.304;19.028;2022-08-21T18:30:52;1.73;;;0.70;;
40981;SDS011;26708;50.304;19.028;2022-08-21T18:33:54;0.90;;;0.60;;
40981;SDS011;26708;50.304;19.028;2022-08-21T18:36:55;1.30;;;0.73;;
40981;SDS011;26708;50.304;19.028;2022-08-21T18:39:56;1.42;;;0.70;;
40981;SDS011;26708;50.304;19.028;2022-08-21T18:42:57;1.05;;;0.55;;
40981;SDS011;26708;50.304;19.028;2022-08-21T18:46:00;3.60;;;0.68;;
40981;SDS011;26708;50.304;19.028;2022-08-21T18:49:01;0.60;;;0.55;;
40981;SDS011;26708;50.304;19.028;2022-08-21T18:52:03;0.80;;;0.77;;
40981;SDS011;26708;50.304;19.028;2022-08-21T18:55:05;1.95;;;1.10;;
40981;SDS011;26708;50.304;19.028;2022-08-21T18:58:06;1.08;;;0.70;;
40981;SDS011;26708;50.304;19.028;2022-08-21T19:01:08;3.13;;;0.98;;
40981;SDS011;26708;50.304;19.028;2022-08-21T19:04:10;1.52;;;0.60;;
40981;SDS011;26708;50.304;19.028;2022-08-21T19:07:12;1.15;;;0.95;;
40981;SDS011;26708;50.304;19.028;2022-08-21T19:10:14;5.68;;;1.00;;
40981;SDS011;26708;50.304;19.028;2022-08-21T19:13:18;3.08;;;1.05;;
40981;SDS011;26708;50.304;19.028;2022-08-21T19:16:21;2.08;;;0.88;;